Time,TemperatureF,DewpointF,PressureIn,WindDirection,WindDirectionDegrees,WindSpeedMPH,WindSpeedGustMPH,Humidity,HourlyPrecipIn,Conditions,Clouds,dailyrainin,SoftwareType,DateUTC
2013-02-14 00:00:00,24.2,20.1,30.28,West,269,0.0,0.0,84,0.00,,,0.00,Wunderground v.1.15,2013-02-14 07:00:00,
2013-02-14 00:05:00,24.4,20.3,30.28,West,269,0.0,0.0,84,0.00,,,0.00,Wunderground v.1.15,2013-02-14 07:05:00,
2013-02-14 00:15:00,24.3,20.2,30.28,West,269,0.0,0.0,84,0.00,,,0.00,Wunderground v.1.15,2013-02-14 07:15:00,
2013-02-14 00:20:00,24.4,20.5,30.28,West,269,0.0,0.0,85,0.00,,,0.00,Wunderground v.1.15,2013-02-14 07:20:00,
2013-02-14 00:25:00,24.5,20.6,30.28,West,269,0.0,0.0,85,0.00,,,0.00,Wunderground v.1.15,2013-02-14 07:25:00,
2013-02-14 00:30:00,24.5,20.6,30.27,West,269,0.0,0.0,85,0.00,,,0.00,Wunderground v.1.15,2013-02-14 07:30:00,
2013-02-14 00:35:00,24.6,20.7,30.27,West,269,0.0,0.0,85,0.00,,,0.00,Wunderground v.1.15,2013-02-14 07:35:00,
2013-02-14 00:40:00,24.7,20.8,30.27,West,269,0.0,0.0,85,0.00,,,0.00,Wunderground v.1.15,2013-02-14 07:40:00,
2013-02-14 00:44:00,24.8,20.9,30.27,West,269,0.0,0.0,85,0.00,,,0.00,Wunderground v.1.15,2013-02-14 07:44:00,
2013-02-14 00:54:00,24.9,21.0,30.27,West,269,0.0,0.0,85,0.00,,,0.00,Wunderground v.1.15,2013-02-14 07:54:00,
2013-02-14 00:59:00,24.9,21.0,30.27,West,269,0.0,0.0,85,0.00,,,0.00,Wunderground v.1.15,2013-02-14 07:59:00,
2013-02-14 01:05:00,24.9,20.8,30.26,West,269,0.0,0.0,84,0.00,,,0.00,Wunderground v.1.15,2013-02-14 08:05:00,
2013-02-14 01:15:00,24.4,20.3,30.27,West,269,0.0,0.0,84,0.00,,,0.00,Wunderground v.1.15,2013-02-14 08:15:00,
2013-02-14 01:25:00,24.3,20.2,30.27,West,269,0.0,0.0,84,0.00,,,0.00,Wunderground v.1.15,2013-02-14 08:25:00,
2013-02-14 01:30:00,24.4,20.3,30.27,West,269,0.0,0.0,84,0.00,,,0.00,Wunderground v.1.15,2013-02-14 08:30:00,
2013-02-14 01:35:00,24.5,20.4,30.25,West,269,0.0,0.0,84,0.00,,,0.00,Wunderground v.1.15,2013-02-14 08:35:00,
2013-02-14 01:40:00,24.7,20.6,30.26,West,269,0.0,0.0,84,0.00,,,0.00,Wunderground v.1.15,2013-02-14 08:40:00,
2013-02-14 01:45:00,24.7,20.6,30.25,West,269,0.0,0.0,84,0.00,,,0.00,Wunderground v.1.15,2013-02-14 08:45:00,
2013-02-14 01:54:00,24.9,21.0,30.26,West,269,0.0,0.0,85,0.00,,,0.00,Wunderground v.1.15,2013-02-14 08:54:00,
2013-02-14 01:59:00,24.9,21.0,30.26,West,269,0.0,0.0,85,0.00,,,0.00,Wunderground v.1.15,2013-02-14 08:59:00,
2013-02-14 02:05:00,24.9,21.0,30.27,West,269,0.0,0.0,85,0.00,,,0.00,Wunderground v.1.15,2013-02-14 09:05:00,
2013-02-14 02:14:00,24.9,21.0,30.27,West,269,0.0,0.0,85,0.00,,,0.00,Wunderground v.1.15,2013-02-14 09:14:00,
2013-02-14 02:19:00,25.0,21.1,30.27,West,269,0.0,0.0,85,0.00,,,0.00,Wunderground v.1.15,2013-02-14 09:19:00,
2013-02-14 02:25:00,25.0,21.1,30.27,West,269,0.0,0.0,85,0.00,,,0.00,Wunderground v.1.15,2013-02-14 09:25:00,
2013-02-14 02:35:00,24.5,20.6,30.27,West,267,0.0,3.0,85,0.00,,,0.00,Wunderground v.1.15,2013-02-14 09:35:00,
2013-02-14 02:40:00,24.5,20.6,30.27,West,267,1.0,1.0,85,0.00,,,0.00,Wunderground v.1.15,2013-02-14 09:40:00,
2013-02-14 02:45:00,24.7,20.8,30.27,West,267,2.0,2.0,85,0.00,,,0.00,Wunderground v.1.15,2013-02-14 09:45:00,
2013-02-14 02:50:00,24.9,21.0,30.27,West,267,1.0,2.0,85,0.00,,,0.00,Wunderground v.1.15,2013-02-14 09:50:00,
2013-02-14 03:00:00,25.2,21.3,30.27,West,269,2.0,2.0,85,0.00,,,0.00,Wunderground v.1.15,2013-02-14 10:00:00,
2013-02-14 03:05:00,25.4,21.5,30.27,West,269,2.0,3.0,85,0.00,,,0.00,Wunderground v.1.15,2013-02-14 10:05:00,
2013-02-14 03:14:00,25.5,21.6,30.26,West,269,2.0,2.0,85,0.00,,,0.00,Wunderground v.1.15,2013-02-14 10:14:00,
2013-02-14 03:19:00,25.5,21.3,30.26,West,268,0.0,0.0,84,0.00,,,0.00,Wunderground v.1.15,2013-02-14 10:19:00,
2013-02-14 03:25:00,25.6,21.4,30.26,West,269,0.0,0.0,84,0.00,,,0.00,Wunderground v.1.15,2013-02-14 10:25:00,
2013-02-14 03:34:00,25.7,21.5,30.25,West,268,0.0,0.0,84,0.00,,,0.00,Wunderground v.1.15,2013-02-14 10:34:00,
2013-02-14 03:39:00,25.7,21.5,30.25,West,268,0.0,0.0,84,0.00,,,0.00,Wunderground v.1.15,2013-02-14 10:39:00,
2013-02-14 03:44:00,25.8,21.6,30.25,West,269,0.0,0.0,84,0.00,,,0.00,Wunderground v.1.15,2013-02-14 10:44:00,
2013-02-14 03:49:00,25.9,21.4,30.25,West,269,0.0,0.0,83,0.00,,,0.00,Wunderground v.1.15,2013-02-14 10:49:00,
2013-02-14 03:55:00,26.0,21.5,30.25,West,269,0.0,0.0,83,0.00,,,0.00,Wunderground v.1.15,2013-02-14 10:55:00,
2013-02-14 04:00:00,26.0,21.5,30.25,West,269,0.0,0.0,83,0.00,,,0.00,Wunderground v.1.15,2013-02-14 11:00:00,
2013-02-14 04:05:00,26.1,21.6,30.24,West,269,0.0,0.0,83,0.00,,,0.00,Wunderground v.1.15,2013-02-14 11:05:00,
2013-02-14 04:14:00,26.2,21.5,30.25,West,269,0.0,1.0,82,0.00,,,0.00,Wunderground v.1.15,2013-02-14 11:14:00,
2013-02-14 04:19:00,26.2,21.7,30.25,WNW,288,1.0,1.0,83,0.00,,,0.00,Wunderground v.1.15,2013-02-14 11:19:00,
2013-02-14 04:24:00,26.2,21.7,30.25,NNW,329,1.0,3.0,83,0.00,,,0.00,Wunderground v.1.15,2013-02-14 11:24:00,
2013-02-14 04:34:00,26.3,21.8,30.25,NNW,336,1.0,1.0,83,0.00,,,0.00,Wunderground v.1.15,2013-02-14 11:34:00,
2013-02-14 04:39:00,26.3,21.8,30.25,NNW,336,1.0,1.0,83,0.00,,,0.00,Wunderground v.1.15,2013-02-14 11:39:00,
2013-02-14 04:49:00,26.5,21.7,30.25,NNW,337,1.0,2.0,82,0.00,,,0.00,Wunderground v.1.15,2013-02-14 11:49:00,
2013-02-14 04:54:00,26.6,21.8,30.26,NNW,338,2.0,2.0,82,0.00,,,0.00,Wunderground v.1.15,2013-02-14 11:54:00,
2013-02-14 05:00:00,26.6,21.8,30.26,NNW,337,1.0,1.0,82,0.00,,,0.00,Wunderground v.1.15,2013-02-14 12:00:00,
2013-02-14 05:05:00,26.6,21.8,30.29,NNW,338,0.0,1.0,82,0.00,,,0.00,Wunderground v.1.15,2013-02-14 12:05:00,
2013-02-14 05:15:00,26.4,21.7,30.30,NNW,338,0.0,0.0,82,0.00,,,0.00,Wunderground v.1.15,2013-02-14 12:15:00,
2013-02-14 05:20:00,26.3,21.8,30.30,NNW,337,0.0,0.0,83,0.00,,,0.00,Wunderground v.1.15,2013-02-14 12:20:00,
2013-02-14 05:25:00,26.2,21.7,30.30,NNW,337,0.0,0.0,83,0.00,,,0.00,Wunderground v.1.15,2013-02-14 12:25:00,
2013-02-14 05:34:00,26.0,21.5,30.31,NNW,337,0.0,0.0,83,0.00,,,0.00,Wunderground v.1.15,2013-02-14 12:34:00,
2013-02-14 05:39:00,25.9,21.4,30.31,NNW,338,0.0,0.0,83,0.00,,,0.00,Wunderground v.1.15,2013-02-14 12:39:00,
2013-02-14 05:44:00,25.8,21.3,30.31,NNW,338,0.0,0.0,83,0.00,,,0.00,Wunderground v.1.15,2013-02-14 12:44:00,
2013-02-14 05:49:00,25.6,21.2,30.31,NNW,338,0.0,1.0,83,0.00,,,0.00,Wunderground v.1.15,2013-02-14 12:49:00,
2013-02-14 05:54:00,25.5,21.3,30.31,NNW,338,1.0,1.0,84,0.00,,,0.00,Wunderground v.1.15,2013-02-14 12:54:00,
2013-02-14 05:59:00,25.5,21.3,30.31,NNW,337,2.0,2.0,84,0.00,,,0.00,Wunderground v.1.15,2013-02-14 12:59:00,
2013-02-14 06:04:00,25.9,21.7,30.32,NNW,338,1.0,2.0,84,0.00,,,0.00,Wunderground v.1.15,2013-02-14 13:04:00,
2013-02-14 06:14:00,26.2,22.3,30.33,NNW,338,1.0,1.0,85,0.00,,,0.00,Wunderground v.1.15,2013-02-14 13:14:00,
2013-02-14 06:19:00,26.2,22.3,30.33,NNW,338,0.0,0.0,85,0.00,,,0.00,Wunderground v.1.15,2013-02-14 13:19:00,
2013-02-14 06:25:00,26.2,22.0,30.33,NNW,338,0.0,0.0,84,0.00,,,0.00,Wunderground v.1.15,2013-02-14 13:25:00,
2013-02-14 06:35:00,26.1,21.9,30.32,NNW,337,0.0,0.0,84,0.00,,,0.00,Wunderground v.1.15,2013-02-14 13:35:00,
2013-02-14 06:40:00,25.8,21.6,30.32,NNW,337,1.0,1.0,84,0.00,,,0.00,Wunderground v.1.15,2013-02-14 13:40:00,
2013-02-14 06:44:00,25.5,21.3,30.32,NNW,337,0.0,1.0,84,0.00,,,0.00,Wunderground v.1.15,2013-02-14 13:44:00,
2013-02-14 06:49:00,25.4,21.2,30.34,NNW,338,0.0,0.0,84,0.00,,,0.00,Wunderground v.1.15,2013-02-14 13:49:00,
2013-02-14 06:54:00,25.3,21.1,30.34,NNW,338,0.0,3.0,84,0.00,,,0.00,Wunderground v.1.15,2013-02-14 13:54:00,
2013-02-14 06:59:00,24.9,20.8,30.34,NNW,337,1.0,2.0,84,0.00,,,0.00,Wunderground v.1.15,2013-02-14 13:59:00,
2013-02-14 07:05:00,24.5,20.1,30.34,NNW,338,2.0,2.0,83,0.00,,,0.00,Wunderground v.1.15,2013-02-14 14:05:00,
2013-02-14 07:14:00,24.2,20.1,30.36,NNW,338,1.0,3.0,84,0.00,,,0.00,Wunderground v.1.15,2013-02-14 14:14:00,
2013-02-14 07:19:00,24.0,19.9,30.36,NNW,344,2.0,2.0,84,0.00,,,0.00,Wunderground v.1.15,2013-02-14 14:19:00,
2013-02-14 07:24:00,23.9,19.8,30.36,North,360,1.0,2.0,84,0.00,,,0.00,Wunderground v.1.15,2013-02-14 14:24:00,
2013-02-14 07:29:00,23.9,19.8,30.37,North,360,1.0,2.0,84,0.00,,,0.00,Wunderground v.1.15,2013-02-14 14:29:00,
2013-02-14 07:34:00,23.9,19.8,30.37,North,360,1.0,2.0,84,0.00,,,0.00,Wunderground v.1.15,2013-02-14 14:34:00,
2013-02-14 07:40:00,24.0,20.1,30.37,North,5,1.0,1.0,85,0.00,,,0.00,Wunderground v.1.15,2013-02-14 14:40:00,
2013-02-14 07:50:00,24.1,20.2,30.39,North,360,0.0,0.0,85,0.00,,,0.00,Wunderground v.1.15,2013-02-14 14:50:00,
2013-02-14 07:55:00,24.2,20.3,30.39,North,5,0.0,0.0,85,0.00,,,0.00,Wunderground v.1.15,2013-02-14 14:55:00,
2013-02-14 08:00:00,24.0,20.1,30.40,North,5,0.0,0.0,85,0.00,,,0.00,Wunderground v.1.15,2013-02-14 15:00:00,
2013-02-14 08:05:00,24.2,20.3,30.41,North,5,0.0,0.0,85,0.00,,,0.00,Wunderground v.1.15,2013-02-14 15:05:00,
2013-02-14 08:14:00,24.7,20.8,30.39,SSW,195,3.0,5.0,85,0.00,,,0.00,Wunderground v.1.15,2013-02-14 15:14:00,
2013-02-14 08:24:00,26.1,22.5,30.40,SSW,195,1.0,3.0,86,0.00,,,0.00,Wunderground v.1.15,2013-02-14 15:24:00,
2013-02-14 08:29:00,26.6,22.7,30.39,SSW,195,1.0,1.0,85,0.00,,,0.00,Wunderground v.1.15,2013-02-14 15:29:00,
2013-02-14 08:34:00,27.1,23.2,30.39,SSW,195,1.0,1.0,85,0.00,,,0.00,Wunderground v.1.15,2013-02-14 15:34:00,
2013-02-14 08:39:00,27.7,23.8,30.38,SSW,195,0.0,4.0,85,0.00,,,0.00,Wunderground v.1.15,2013-02-14 15:39:00,
2013-02-14 08:49:00,29.4,25.2,30.37,SSW,195,0.0,0.0,84,0.00,,,0.00,Wunderground v.1.15,2013-02-14 15:49:00,
2013-02-14 08:54:00,30.1,25.6,30.37,SSW,195,0.0,0.0,83,0.00,,,0.00,Wunderground v.1.15,2013-02-14 15:54:00,
2013-02-14 09:00:00,30.5,25.4,30.38,SW,217,0.0,2.0,81,0.00,,,0.00,Wunderground v.1.15,2013-02-14 16:00:00,
2013-02-14 09:05:00,30.4,24.7,30.39,WNW,288,1.0,2.0,79,0.00,,,0.00,Wunderground v.1.15,2013-02-14 16:05:00,
2013-02-14 09:15:00,30.2,24.5,30.39,WNW,288,1.0,1.0,79,0.00,,,0.00,Wunderground v.1.15,2013-02-14 16:15:00,
2013-02-14 09:20:00,30.1,24.4,30.39,WNW,288,0.0,0.0,79,0.00,,,0.00,Wunderground v.1.15,2013-02-14 16:20:00,
2013-02-14 09:25:00,30.1,24.1,30.38,WSW,256,0.0,4.0,78,0.00,,,0.00,Wunderground v.1.15,2013-02-14 16:25:00,
2013-02-14 09:29:00,30.2,24.5,30.38,WSW,244,1.0,3.0,79,0.00,,,0.00,Wunderground v.1.15,2013-02-14 16:29:00,
2013-02-14 09:34:00,30.6,24.9,30.38,WNW,303,2.0,4.0,79,0.00,,,0.00,Wunderground v.1.15,2013-02-14 16:34:00,
2013-02-14 09:44:00,32.1,25.4,30.38,North,355,1.0,2.0,76,0.00,,,0.00,Wunderground v.1.15,2013-02-14 16:44:00,
2013-02-14 09:49:00,32.7,25.3,30.37,NNE,17,1.0,1.0,74,0.00,,,0.00,Wunderground v.1.15,2013-02-14 16:49:00,
2013-02-14 09:54:00,33.1,25.4,30.37,NE,39,2.0,2.0,73,0.00,,,0.00,Wunderground v.1.15,2013-02-14 16:54:00,
2013-02-14 09:59:00,33.4,25.0,30.38,NE,48,2.0,2.0,71,0.00,,,0.00,Wunderground v.1.15,2013-02-14 16:59:00,
2013-02-14 10:04:00,34.1,26.0,30.37,NE,49,2.0,2.0,72,0.00,,,0.00,Wunderground v.1.15,2013-02-14 17:04:00,
2013-02-14 10:14:00,35.5,25.6,30.38,NE,49,0.0,1.0,67,0.00,,,0.00,Wunderground v.1.15,2013-02-14 17:14:00,
2013-02-14 10:20:00,36.2,25.2,30.36,NE,52,0.0,2.0,64,0.00,,,0.00,Wunderground v.1.15,2013-02-14 17:20:00,
2013-02-14 10:25:00,37.0,25.6,30.36,NE,53,1.0,3.0,63,0.00,,,0.00,Wunderground v.1.15,2013-02-14 17:25:00,
2013-02-14 10:30:00,37.0,24.8,30.36,NE,52,1.0,1.0,61,0.00,,,0.00,Wunderground v.1.15,2013-02-14 17:30:00,
2013-02-14 10:35:00,36.8,25.0,30.37,NE,45,2.0,3.0,62,0.00,,,0.00,Wunderground v.1.15,2013-02-14 17:35:00,
2013-02-14 10:40:00,36.7,24.5,30.37,NE,44,2.0,2.0,61,0.00,,,0.00,Wunderground v.1.15,2013-02-14 17:40:00,
2013-02-14 10:45:00,36.9,24.7,30.37,NE,42,2.0,2.0,61,0.00,,,0.00,Wunderground v.1.15,2013-02-14 17:45:00,
2013-02-14 10:54:00,37.8,24.7,30.36,NNE,26,1.0,2.0,59,0.00,,,0.00,Wunderground v.1.15,2013-02-14 17:54:00,
2013-02-14 11:05:00,39.0,24.2,30.36,SSW,206,1.0,1.0,55,0.00,,,0.00,Wunderground v.1.15,2013-02-14 18:05:00,
2013-02-14 11:14:00,40.1,24.3,30.36,SSE,155,1.0,2.0,53,0.00,,,0.00,Wunderground v.1.15,2013-02-14 18:14:00,
2013-02-14 11:20:00,40.4,23.7,30.36,SSE,153,1.0,1.0,51,0.00,,,0.00,Wunderground v.1.15,2013-02-14 18:20:00,
2013-02-14 11:25:00,41.0,24.2,30.35,East,83,1.0,1.0,51,0.00,,,0.00,Wunderground v.1.15,2013-02-14 18:25:00,
2013-02-14 11:30:00,41.1,24.8,30.35,WSW,238,1.0,5.0,52,0.00,,,0.00,Wunderground v.1.15,2013-02-14 18:30:00,
2013-02-14 11:35:00,40.1,24.3,30.35,South,186,3.0,5.0,53,0.00,,,0.00,Wunderground v.1.15,2013-02-14 18:35:00,
2013-02-14 11:40:00,40.0,24.2,30.35,South,178,4.0,4.0,53,0.00,,,0.00,Wunderground v.1.15,2013-02-14 18:40:00,
2013-02-14 11:45:00,40.2,24.0,30.35,South,186,2.0,4.0,52,0.00,,,0.00,Wunderground v.1.15,2013-02-14 18:45:00,
2013-02-14 11:54:00,40.9,24.6,30.34,SSW,202,3.0,3.0,52,0.00,,,0.00,Wunderground v.1.15,2013-02-14 18:54:00,
2013-02-14 11:59:00,41.5,23.7,30.33,East,101,2.0,2.0,49,0.00,,,0.00,Wunderground v.1.15,2013-02-14 18:59:00,
2013-02-14 12:05:00,41.8,24.0,30.33,East,101,1.0,2.0,49,0.00,,,0.00,Wunderground v.1.15,2013-02-14 19:05:00,
2013-02-14 12:14:00,42.4,24.1,30.32,ENE,76,1.0,2.0,48,0.00,,,0.00,Wunderground v.1.15,2013-02-14 19:14:00,
2013-02-14 12:19:00,43.1,24.7,30.31,ENE,76,1.0,1.0,48,0.00,,,0.00,Wunderground v.1.15,2013-02-14 19:19:00,
2013-02-14 12:29:00,44.7,25.2,30.30,East,84,1.0,4.0,46,0.00,,,0.00,Wunderground v.1.15,2013-02-14 19:29:00,
2013-02-14 12:34:00,44.6,25.1,30.29,East,86,2.0,4.0,46,0.00,,,0.00,Wunderground v.1.15,2013-02-14 19:34:00,
2013-02-14 12:39:00,44.6,24.0,30.29,ENE,75,2.0,3.0,44,0.00,,,0.00,Wunderground v.1.15,2013-02-14 19:39:00,
2013-02-14 12:44:00,44.2,24.2,30.30,ENE,75,1.0,3.0,45,0.00,,,0.00,Wunderground v.1.15,2013-02-14 19:44:00,
2013-02-14 12:49:00,44.9,24.3,30.28,SSW,192,2.0,3.0,44,0.00,,,0.00,Wunderground v.1.15,2013-02-14 19:49:00,
2013-02-14 12:55:00,45.5,24.3,30.28,South,179,2.0,3.0,43,0.00,,,0.00,Wunderground v.1.15,2013-02-14 19:55:00,
2013-02-14 13:00:00,45.6,23.8,30.28,SW,214,1.0,3.0,42,0.00,,,0.00,Wunderground v.1.15,2013-02-14 20:00:00,
2013-02-14 13:05:00,45.1,23.3,30.28,West,263,3.0,3.0,42,0.00,,,0.00,Wunderground v.1.15,2013-02-14 20:05:00,
2013-02-14 13:15:00,45.1,23.9,30.28,NW,306,2.0,3.0,43,0.00,,,0.00,Wunderground v.1.15,2013-02-14 20:15:00,
2013-02-14 13:20:00,45.5,25.4,30.27,WNW,284,2.0,2.0,45,0.00,,,0.00,Wunderground v.1.15,2013-02-14 20:20:00,
2013-02-14 13:29:00,46.1,24.3,30.27,WSW,251,2.0,3.0,42,0.00,,,0.00,Wunderground v.1.15,2013-02-14 20:29:00,
2013-02-14 13:34:00,45.6,24.4,30.27,WNW,282,2.0,3.0,43,0.00,,,0.00,Wunderground v.1.15,2013-02-14 20:34:00,
2013-02-14 13:44:00,45.7,24.5,30.27,West,271,2.0,6.0,43,0.00,,,0.00,Wunderground v.1.15,2013-02-14 20:44:00,
2013-02-14 13:49:00,46.2,25.5,30.27,WSW,250,1.0,3.0,44,0.00,,,0.00,Wunderground v.1.15,2013-02-14 20:49:00,
2013-02-14 13:54:00,46.3,25.0,30.27,SW,219,2.0,5.0,43,0.00,,,0.00,Wunderground v.1.15,2013-02-14 20:54:00,
2013-02-14 14:00:00,46.4,25.1,30.27,WNW,289,4.0,4.0,43,0.00,,,0.00,Wunderground v.1.15,2013-02-14 21:00:00,
2013-02-14 14:05:00,46.4,25.6,30.27,West,273,3.0,6.0,44,0.00,,,0.00,Wunderground v.1.15,2013-02-14 21:05:00,
2013-02-14 14:15:00,46.3,25.0,30.26,SW,232,4.0,6.0,43,0.00,,,0.00,Wunderground v.1.15,2013-02-14 21:15:00,
2013-02-14 14:20:00,46.8,24.9,30.25,West,267,2.0,2.0,42,0.00,,,0.00,Wunderground v.1.15,2013-02-14 21:20:00,
2013-02-14 14:25:00,46.8,26.0,30.25,West,269,2.0,6.0,44,0.00,,,0.00,Wunderground v.1.15,2013-02-14 21:25:00,
2013-02-14 14:34:00,47.3,25.3,30.25,NW,318,2.0,6.0,42,0.00,,,0.00,Wunderground v.1.15,2013-02-14 21:34:00,
2013-02-14 14:39:00,47.8,25.8,30.25,WNW,289,2.0,4.0,42,0.00,,,0.00,Wunderground v.1.15,2013-02-14 21:39:00,
2013-02-14 14:44:00,48.0,25.4,30.25,WNW,293,2.0,4.0,41,0.00,,,0.00,Wunderground v.1.15,2013-02-14 21:44:00,
2013-02-14 14:49:00,48.1,25.5,30.25,West,267,2.0,4.0,41,0.00,,,0.00,Wunderground v.1.15,2013-02-14 21:49:00,
2013-02-14 14:54:00,47.7,25.1,30.25,WNW,294,2.0,4.0,41,0.00,,,0.00,Wunderground v.1.15,2013-02-14 21:54:00,
2013-02-14 15:05:00,48.0,26.0,30.24,North,9,0.0,2.0,42,0.00,,,0.00,Wunderground v.1.15,2013-02-14 22:05:00,
2013-02-14 15:14:00,48.5,26.4,30.24,NW,307,2.0,2.0,42,0.00,,,0.00,Wunderground v.1.15,2013-02-14 22:14:00,
2013-02-14 15:19:00,48.4,25.2,30.24,West,270,3.0,3.0,40,0.00,,,0.00,Wunderground v.1.15,2013-02-14 22:19:00,
2013-02-14 15:24:00,48.0,25.4,30.24,WNW,284,3.0,5.0,41,0.00,,,0.00,Wunderground v.1.15,2013-02-14 22:24:00,
2013-02-14 15:29:00,48.3,25.7,30.24,WSW,248,3.0,5.0,41,0.00,,,0.00,Wunderground v.1.15,2013-02-14 22:29:00,
2013-02-14 15:35:00,47.8,25.2,30.24,West,280,4.0,5.0,41,0.00,,,0.00,Wunderground v.1.15,2013-02-14 22:35:00,
2013-02-14 15:40:00,47.7,24.5,30.24,West,267,4.0,4.0,40,0.00,,,0.00,Wunderground v.1.15,2013-02-14 22:40:00,
2013-02-14 15:50:00,48.2,25.0,30.24,North,355,3.0,3.0,40,0.00,,,0.00,Wunderground v.1.15,2013-02-14 22:50:00,
2013-02-14 15:55:00,48.3,24.5,30.24,NNW,333,1.0,3.0,39,0.00,,,0.00,Wunderground v.1.15,2013-02-14 22:55:00,
2013-02-14 16:00:00,48.5,24.0,30.24,NNW,344,0.0,1.0,38,0.00,,,0.00,Wunderground v.1.15,2013-02-14 23:00:00,
2013-02-14 16:05:00,48.9,24.4,30.23,WSW,250,1.0,1.0,38,0.00,,,0.00,Wunderground v.1.15,2013-02-14 23:05:00,
2013-02-14 16:14:00,49.5,24.9,30.23,WNW,302,2.0,3.0,38,0.00,,,0.00,Wunderground v.1.15,2013-02-14 23:14:00,
2013-02-14 16:19:00,49.6,24.4,30.23,WNW,303,1.0,1.0,37,0.00,,,0.00,Wunderground v.1.15,2013-02-14 23:19:00,
2013-02-14 16:24:00,49.3,24.7,30.23,NNE,22,1.0,1.0,38,0.00,,,0.00,Wunderground v.1.15,2013-02-14 23:24:00,
2013-02-14 16:29:00,49.2,24.6,30.23,NW,311,1.0,3.0,38,0.00,,,0.00,Wunderground v.1.15,2013-02-14 23:29:00,
2013-02-14 16:39:00,49.0,23.8,30.23,WNW,290,1.0,1.0,37,0.00,,,0.00,Wunderground v.1.15,2013-02-14 23:39:00,
2013-02-14 16:44:00,48.4,23.9,30.23,WNW,290,1.0,2.0,38,0.00,,,0.00,Wunderground v.1.15,2013-02-14 23:44:00,
2013-02-14 16:50:00,47.8,26.9,30.24,WNW,294,2.0,4.0,44,0.00,,,0.00,Wunderground v.1.15,2013-02-14 23:50:00,
2013-02-14 16:55:00,47.8,27.5,30.24,NW,323,2.0,4.0,45,0.00,,,0.00,Wunderground v.1.15,2013-02-14 23:55:00,
2013-02-14 17:00:00,47.7,27.9,30.24,NW,321,2.0,2.0,46,0.00,,,0.00,Wunderground v.1.15,2013-02-15 00:00:00,
2013-02-14 17:05:00,47.7,28.4,30.24,NW,308,2.0,2.0,47,0.00,,,0.00,Wunderground v.1.15,2013-02-15 00:05:00,
2013-02-14 17:15:00,47.2,29.5,30.25,NW,311,2.0,3.0,50,0.00,,,0.00,Wunderground v.1.15,2013-02-15 00:15:00,
2013-02-14 17:20:00,46.7,29.5,30.26,NNW,333,2.0,3.0,51,0.00,,,0.00,Wunderground v.1.15,2013-02-15 00:20:00,
2013-02-14 17:24:00,45.9,29.2,30.26,NW,314,3.0,4.0,52,0.00,,,0.00,Wunderground v.1.15,2013-02-15 00:24:00,
2013-02-14 17:29:00,45.0,28.9,30.27,NW,309,3.0,3.0,53,0.00,,,0.00,Wunderground v.1.15,2013-02-15 00:29:00,
2013-02-14 17:34:00,44.3,28.7,30.27,NW,310,3.0,5.0,54,0.00,,,0.00,Wunderground v.1.15,2013-02-15 00:34:00,
2013-02-14 17:44:00,42.1,27.5,30.28,NNW,331,4.0,4.0,56,0.00,,,0.00,Wunderground v.1.15,2013-02-15 00:44:00,
2013-02-14 17:49:00,41.1,27.4,30.29,NNW,336,3.0,4.0,58,0.00,,,0.00,Wunderground v.1.15,2013-02-15 00:49:00,
2013-02-14 17:54:00,40.3,27.1,30.29,NNW,327,3.0,4.0,59,0.00,,,0.00,Wunderground v.1.15,2013-02-15 00:54:00,
2013-02-14 17:59:00,39.4,26.7,30.29,NW,326,3.0,5.0,60,0.00,,,0.00,Wunderground v.1.15,2013-02-15 00:59:00,
2013-02-14 18:05:00,38.6,26.3,30.30,NNW,342,3.0,5.0,61,0.00,,,0.00,Wunderground v.1.15,2013-02-15 01:05:00,
2013-02-14 18:15:00,37.6,26.1,30.32,North,350,3.0,3.0,63,0.00,,,0.00,Wunderground v.1.15,2013-02-15 01:15:00,
2013-02-14 18:20:00,37.2,25.8,30.32,NNW,335,2.0,4.0,63,0.00,,,0.00,Wunderground v.1.15,2013-02-15 01:20:00,
2013-02-14 18:25:00,36.8,25.8,30.32,NNW,344,2.0,4.0,64,0.00,,,0.00,Wunderground v.1.15,2013-02-15 01:25:00,
2013-02-14 18:30:00,36.4,25.7,30.33,NNW,348,2.0,2.0,65,0.00,,,0.00,Wunderground v.1.15,2013-02-15 01:30:00,
2013-02-14 18:35:00,36.1,25.5,30.33,NNW,348,1.0,2.0,65,0.00,,,0.00,Wunderground v.1.15,2013-02-15 01:35:00,
2013-02-14 18:44:00,35.6,25.4,30.34,North,355,1.0,2.0,66,0.00,,,0.00,Wunderground v.1.15,2013-02-15 01:44:00,
2013-02-14 18:49:00,35.2,25.3,30.34,North,5,1.0,1.0,67,0.00,,,0.00,Wunderground v.1.15,2013-02-15 01:49:00,
2013-02-14 18:54:00,34.7,25.2,30.34,NNE,13,1.0,1.0,68,0.00,,,0.00,Wunderground v.1.15,2013-02-15 01:54:00,
2013-02-14 18:59:00,34.4,25.3,30.35,North,9,1.0,2.0,69,0.00,,,0.00,Wunderground v.1.15,2013-02-15 01:59:00,
2013-02-14 19:05:00,34.3,25.2,30.35,North,360,2.0,2.0,69,0.00,,,0.00,Wunderground v.1.15,2013-02-15 02:05:00,
2013-02-14 19:14:00,33.6,24.5,30.35,North,5,0.0,1.0,69,0.00,,,0.00,Wunderground v.1.15,2013-02-15 02:14:00,
2013-02-14 19:19:00,32.9,24.2,30.37,North,5,0.0,0.0,70,0.00,,,0.00,Wunderground v.1.15,2013-02-15 02:19:00,
2013-02-14 19:25:00,32.3,24.3,30.37,North,5,0.0,0.0,72,0.00,,,0.00,Wunderground v.1.15,2013-02-15 02:25:00,
2013-02-14 19:30:00,32.3,24.6,30.36,North,5,0.0,0.0,73,0.00,,,0.00,Wunderground v.1.15,2013-02-15 02:30:00,
2013-02-14 19:35:00,32.5,24.8,30.37,North,360,0.0,0.0,73,0.00,,,0.00,Wunderground v.1.15,2013-02-15 02:35:00,
2013-02-14 19:40:00,32.6,25.2,30.37,North,5,0.0,0.0,74,0.00,,,0.00,Wunderground v.1.15,2013-02-15 02:40:00,
2013-02-14 19:49:00,32.5,24.8,30.37,North,5,0.0,0.0,73,0.00,,,0.00,Wunderground v.1.15,2013-02-15 02:49:00,
2013-02-14 19:54:00,32.3,24.6,30.37,North,5,0.0,0.0,73,0.00,,,0.00,Wunderground v.1.15,2013-02-15 02:54:00,
2013-02-14 19:59:00,32.1,24.7,30.37,North,5,0.0,0.0,74,0.00,,,0.00,Wunderground v.1.15,2013-02-15 02:59:00,
2013-02-14 20:05:00,31.9,24.6,30.34,North,5,0.0,0.0,74,0.00,,,0.00,Wunderground v.1.15,2013-02-15 03:05:00,
2013-02-14 20:14:00,31.6,24.6,30.34,North,5,0.0,0.0,75,0.00,,,0.00,Wunderground v.1.15,2013-02-15 03:14:00,
2013-02-14 20:19:00,31.5,24.5,30.34,North,360,0.0,0.0,75,0.00,,,0.00,Wunderground v.1.15,2013-02-15 03:19:00,
2013-02-14 20:24:00,31.4,24.4,30.34,North,5,0.0,0.0,75,0.00,,,0.00,Wunderground v.1.15,2013-02-15 03:24:00,
2013-02-14 20:29:00,31.0,23.7,30.34,North,5,0.0,0.0,74,0.00,,,0.00,Wunderground v.1.15,2013-02-15 03:29:00,
2013-02-14 20:40:00,29.9,23.3,30.36,North,5,0.0,0.0,76,0.00,,,0.00,Wunderground v.1.15,2013-02-15 03:40:00,
2013-02-14 20:50:00,29.4,23.1,30.36,North,360,0.0,0.0,77,0.00,,,0.00,Wunderground v.1.15,2013-02-15 03:50:00,
2013-02-14 20:55:00,29.1,23.1,30.36,North,360,0.0,1.0,78,0.00,,,0.00,Wunderground v.1.15,2013-02-15 03:55:00,
2013-02-14 21:00:00,29.0,23.3,30.36,North,360,0.0,0.0,79,0.00,,,0.00,Wunderground v.1.15,2013-02-15 04:00:00,
2013-02-14 21:05:00,29.0,23.3,30.35,North,5,1.0,1.0,79,0.00,,,0.00,Wunderground v.1.15,2013-02-15 04:05:00,
2013-02-14 21:15:00,28.9,23.2,30.36,North,360,1.0,2.0,79,0.00,,,0.00,Wunderground v.1.15,2013-02-15 04:15:00,
2013-02-14 21:24:00,28.7,23.0,30.35,North,5,1.0,1.0,79,0.00,,,0.00,Wunderground v.1.15,2013-02-15 04:24:00,
2013-02-14 21:29:00,28.4,22.7,30.36,North,360,0.0,0.0,79,0.00,,,0.00,Wunderground v.1.15,2013-02-15 04:29:00,
2013-02-14 21:34:00,28.0,22.3,30.36,North,360,0.0,0.0,79,0.00,,,0.00,Wunderground v.1.15,2013-02-15 04:34:00,
2013-02-14 21:39:00,27.8,22.1,30.36,North,5,0.0,0.0,79,0.00,,,0.00,Wunderground v.1.15,2013-02-15 04:39:00,
2013-02-14 21:44:00,27.7,22.3,30.36,North,5,0.0,0.0,80,0.00,,,0.00,Wunderground v.1.15,2013-02-15 04:44:00,
2013-02-14 21:50:00,27.7,22.3,30.36,North,5,0.0,0.0,80,0.00,,,0.00,Wunderground v.1.15,2013-02-15 04:50:00,
2013-02-14 21:55:00,27.9,22.5,30.36,North,5,0.0,0.0,80,0.00,,,0.00,Wunderground v.1.15,2013-02-15 04:55:00,
2013-02-14 22:00:00,28.0,22.9,30.36,North,360,0.0,0.0,81,0.00,,,0.00,Wunderground v.1.15,2013-02-15 05:00:00,
2013-02-14 22:05:00,28.0,22.9,30.34,North,360,0.0,0.0,81,0.00,,,0.00,Wunderground v.1.15,2013-02-15 05:05:00,
2013-02-14 22:10:00,28.1,23.0,30.34,North,5,0.0,0.0,81,0.00,,,0.00,Wunderground v.1.15,2013-02-15 05:10:00,
2013-02-14 22:15:00,28.0,22.9,30.34,North,5,0.0,0.0,81,0.00,,,0.00,Wunderground v.1.15,2013-02-15 05:15:00,
2013-02-14 22:25:00,27.2,21.8,30.35,North,360,1.0,3.0,80,0.00,,,0.00,Wunderground v.1.15,2013-02-15 05:25:00,
2013-02-14 22:30:00,26.7,21.4,30.35,North,5,1.0,1.0,80,0.00,,,0.00,Wunderground v.1.15,2013-02-15 05:30:00,
2013-02-14 22:35:00,26.4,21.4,30.35,North,5,2.0,3.0,81,0.00,,,0.00,Wunderground v.1.15,2013-02-15 05:35:00,
2013-02-14 22:40:00,26.2,21.2,30.36,North,5,2.0,2.0,81,0.00,,,0.00,Wunderground v.1.15,2013-02-15 05:40:00,
2013-02-14 22:45:00,26.2,21.5,30.36,North,5,1.0,2.0,82,0.00,,,0.00,Wunderground v.1.15,2013-02-15 05:45:00,
2013-02-14 22:50:00,26.3,21.6,30.37,North,360,0.0,0.0,82,0.00,,,0.00,Wunderground v.1.15,2013-02-15 05:50:00,
2013-02-14 22:59:00,26.5,21.7,30.37,North,360,0.0,1.0,82,0.00,,,0.00,Wunderground v.1.15,2013-02-15 05:59:00,
2013-02-14 23:05:00,26.8,22.3,30.35,North,5,1.0,1.0,83,0.00,,,0.00,Wunderground v.1.15,2013-02-15 06:05:00,
2013-02-14 23:14:00,26.6,22.1,30.35,North,5,0.0,1.0,83,0.00,,,0.00,Wunderground v.1.15,2013-02-15 06:14:00,
2013-02-14 23:19:00,26.5,22.0,30.36,North,360,0.0,0.0,83,0.00,,,0.00,Wunderground v.1.15,2013-02-15 06:19:00,
2013-02-14 23:29:00,26.7,22.2,30.36,North,360,0.0,0.0,83,0.00,,,0.00,Wunderground v.1.15,2013-02-15 06:29:00,
2013-02-14 23:34:00,26.2,21.7,30.36,North,10,1.0,1.0,83,0.00,,,0.00,Wunderground v.1.15,2013-02-15 06:34:00,
2013-02-14 23:40:00,25.8,21.1,30.36,North,10,1.0,1.0,82,0.00,,,0.00,Wunderground v.1.15,2013-02-15 06:40:00,
2013-02-14 23:45:00,25.6,20.9,30.36,North,10,0.0,1.0,82,0.00,,,0.00,Wunderground v.1.15,2013-02-15 06:45:00,
2013-02-14 23:50:00,25.4,20.7,30.36,North,10,0.0,0.0,82,0.00,,,0.00,Wunderground v.1.15,2013-02-15 06:50:00,